Time;durP1;ratioP1;P1;durP2;ratioP2;P2;SDS_P1;SDS_P2;PMS_P1;PMS_P2;Temp;Humidity;BMP_temperature;BMP_pressure;BME280_temperature;BME280_humidity;BME280_pressure;Samples;Min_cycle;Max_cycle;Signal;HPM_P1;HPM_P2
2021/11/10 00:00:45;;;;;;;15.68;8.15;;;;;;;3.44;100.00;102452.00;5010007;28;20113;-77
2021/11/10 00:03:10;;;;;;;11.73;7.35;;;;;;;3.37;100.00;102455.72;5010890;28;20045;-75
2021/11/10 00:05:37;;;;;;;19.40;7.78;;;;;;;3.31;100.00;102461.97;5003670;28;20046;-75
2021/11/10 00:08:04;;;;;;;15.75;7.07;;;;;;;3.20;100.00;102462.41;5004899;28;20033;-77
2021/11/10 00:10:30;;;;;;;15.02;7.28;;;;;;;3.08;100.00;102462.81;4993534;28;20044;-78
2021/11/10 00:12:57;;;;;;;16.30;7.85;;;;;;;2.98;100.00;102459.72;5019470;28;20447;-76
2021/11/10 00:15:24;;;;;;;14.98;7.22;;;;;;;2.93;100.00;102457.28;5008734;28;20087;-76
2021/11/10 00:17:50;;;;;;;15.93;7.72;;;;;;;2.84;100.00;102462.78;4988230;28;20033;-76
2021/11/10 00:20:15;;;;;;;10.27;6.97;;;;;;;2.78;100.00;102457.00;5003079;28;20037;-76
2021/11/10 00:22:41;;;;;;;15.00;7.30;;;;;;;2.77;100.00;102461.34;5010455;28;20049;-77
2021/11/10 00:25:08;;;;;;;15.23;7.13;;;;;;;2.77;100.00;102458.75;5008988;28;20320;-75
2021/11/10 00:27:34;;;;;;;13.60;6.88;;;;;;;2.73;100.00;102450.25;5003539;28;20414;-77
2021/11/10 00:29:59;;;;;;;12.05;6.45;;;;;;;2.69;100.00;102452.97;5008099;28;20037;-75
2021/11/10 00:32:25;;;;;;;13.18;6.35;;;;;;;2.65;100.00;102443.63;5006581;28;20049;-75
2021/11/10 00:34:51;;;;;;;14.18;7.03;;;;;;;2.72;100.00;102453.72;5009919;28;20128;-75
2021/11/10 00:37:17;;;;;;;15.30;7.72;;;;;;;2.78;100.00;102454.41;4995657;28;20051;-76
2021/11/10 00:39:45;;;;;;;15.07;8.20;;;;;;;2.84;100.00;102452.44;4991337;28;20040;-78
2021/11/10 00:42:11;;;;;;;17.23;8.30;;;;;;;2.87;100.00;102454.91;5011138;28;20034;-79
2021/11/10 00:44:37;;;;;;;15.60;7.22;;;;;;;2.92;100.00;102459.97;5010715;28;20032;-76
2021/11/10 00:47:03;;;;;;;16.50;8.05;;;;;;;3.04;100.00;102462.09;4994382;28;20037;-76
2021/11/10 00:49:30;;;;;;;17.02;8.77;;;;;;;3.03;100.00;102451.78;5001850;28;20147;-76
2021/11/10 00:51:56;;;;;;;21.48;8.32;;;;;;;3.03;100.00;102452.63;4980932;28;20495;-77
2021/11/10 00:54:21;;;;;;;17.88;9.00;;;;;;;3.10;100.00;102446.31;4989593;28;20614;-77
2021/11/10 00:56:48;;;;;;;15.98;8.70;;;;;;;3.16;100.00;102440.03;4989094;28;20041;-76
2021/11/10 00:59:14;;;;;;;23.02;10.35;;;;;;;3.18;100.00;102432.22;5008391;28;20471;-76
2021/11/10 01:01:40;;;;;;;18.50;8.85;;;;;;;3.17;100.00;102433.13;5003223;28;20044;-76
2021/11/10 01:04:05;;;;;;;22.67;8.82;;;;;;;3.17;100.00;102438.31;5010094;28;20029;-75
2021/11/10 01:06:34;;;;;;;17.15;9.02;;;;;;;3.11;100.00;102441.97;5010130;28;20383;-76
2021/11/10 01:09:02;;;;;;;17.85;9.20;;;;;;;3.16;100.00;102444.41;4991766;28;20037;-76
2021/11/10 01:11:28;;;;;;;16.13;9.10;;;;;;;3.22;100.00;102446.75;5001735;28;20502;-76
2021/11/10 01:13:53;;;;;;;20.42;9.57;;;;;;;3.27;100.00;102440.50;5028594;28;20042;-76
2021/11/10 01:16:19;;;;;;;20.50;9.02;;;;;;;3.25;100.00;102442.28;5012397;28;20463;-77
2021/11/10 01:18:45;;;;;;;21.65;9.95;;;;;;;3.29;100.00;102436.09;4996870;28;20064;-75
2021/11/10 01:21:13;;;;;;;19.60;9.63;;;;;;;3.27;100.00;102439.66;5009933;28;20509;-76
2021/11/10 01:23:40;;;;;;;20.92;9.70;;;;;;;3.29;100.00;102440.44;5018744;28;20045;-75
2021/11/10 01:26:07;;;;;;;20.92;9.45;;;;;;;3.28;100.00;102442.19;5016793;28;20135;-74
2021/11/10 01:28:35;;;;;;;19.13;9.05;;;;;;;3.26;100.00;102435.38;4993112;28;20040;-76
2021/11/10 01:31:00;;;;;;;26.20;9.32;;;;;;;3.26;100.00;102437.97;5023319;28;20045;-76
2021/11/10 01:33:29;;;;;;;19.90;9.20;;;;;;;3.17;100.00;102426.19;4991459;28;20037;-75
2021/11/10 01:35:55;;;;;;;17.23;8.73;;;;;;;3.11;100.00;102424.66;5010274;28;20449;-76
2021/11/10 01:38:34;;;;;;;17.88;9.60;;;;;;;3.10;100.00;102420.38;4991587;28;20033;-75
2021/11/10 01:41:00;;;;;;;16.23;8.52;;;;;;;3.09;100.00;102418.69;5024147;28;20034;-76
2021/11/10 01:43:29;;;;;;;18.67;8.60;;;;;;;3.02;100.00;102414.63;4975769;28;20079;-75
2021/11/10 01:45:57;;;;;;;16.15;8.02;;;;;;;3.00;100.00;102415.59;4977293;28;20041;-76
2021/11/10 01:48:25;;;;;;;15.10;8.48;;;;;;;2.90;100.00;102412.47;4985608;28;20507;-75
2021/11/10 01:50:52;;;;;;;18.13;8.13;;;;;;;2.86;100.00;102413.50;5008423;28;20033;-76
2021/11/10 01:53:18;;;;;;;17.70;9.10;;;;;;;2.87;100.00;102402.25;5009485;28;20041;-75
2021/11/10 01:55:44;;;;;;;15.85;8.40;;;;;;;2.88;100.00;102407.38;5012766;28;20387;-75
2021/11/10 01:58:11;;;;;;;13.93;8.10;;;;;;;2.86;100.00;102409.19;5018329;28;20041;-75
2021/11/10 02:00:40;;;;;;;17.73;8.07;;;;;;;2.82;100.00;102401.56;5012936;28;20041;-76
2021/11/10 02:03:11;;;;;;;15.40;8.23;;;;;;;2.78;100.00;102398.22;5008253;28;20563;-76
2021/11/10 02:05:53;;;;;;;19.00;8.43;;;;;;;2.66;100.00;102394.34;5011221;28;20033;-76
2021/11/10 02:08:30;;;;;;;15.65;8.93;;;;;;;2.48;100.00;102390.63;5025750;28;20123;-76
2021/11/10 02:10:58;;;;;;;12.95;8.07;;;;;;;2.38;100.00;102394.47;5033095;28;20033;-76
2021/11/10 02:13:23;;;;;;;15.98;8.32;;;;;;;2.27;100.00;102393.97;4991461;28;20242;-76
2021/11/10 02:15:50;;;;;;;16.05;7.53;;;;;;;2.21;100.00;102381.25;5003151;28;20407;-76
2021/11/10 02:18:15;;;;;;;13.88;7.28;;;;;;;2.20;100.00;102385.56;5009962;28;20037;-76
2021/11/10 02:20:49;;;;;;;15.52;7.63;;;;;;;2.18;100.00;102379.59;5016570;28;20038;-75
2021/11/10 02:23:18;;;;;;;11.68;7.07;;;;;;;2.13;100.00;102382.34;4994011;28;20044;-76
2021/11/10 02:25:43;;;;;;;12.38;7.50;;;;;;;2.07;100.00;102382.56;5010850;28;20091;-76
2021/11/10 02:28:09;;;;;;;13.55;7.55;;;;;;;2.08;100.00;102392.00;5028005;28;20757;-75
2021/11/10 02:30:35;;;;;;;16.63;7.53;;;;;;;2.12;100.00;102387.56;5029708;28;20159;-75
2021/11/10 02:33:02;;;;;;;16.30;8.25;;;;;;;2.20;100.00;102385.56;5016217;28;20090;-76
2021/11/10 02:35:29;;;;;;;14.07;7.65;;;;;;;2.22;100.00;102380.34;4998870;28;20121;-76
2021/11/10 02:37:58;;;;;;;12.77;7.28;;;;;;;2.29;100.00;102379.25;5012757;28;20404;-75
2021/11/10 02:40:25;;;;;;;19.60;7.80;;;;;;;2.33;100.00;102371.28;4999715;28;20774;-75
2021/11/10 02:42:52;;;;;;;14.25;7.88;;;;;;;2.29;100.00;102366.28;4998831;28;20068;-76
2021/11/10 02:45:18;;;;;;;13.35;7.35;;;;;;;2.17;100.00;102374.47;5022629;28;20043;-76
2021/11/10 02:47:44;;;;;;;20.45;7.88;;;;;;;1.99;100.00;102365.59;5005805;28;20033;-76
2021/11/10 02:50:10;;;;;;;11.93;6.90;;;;;;;1.92;100.00;102355.44;4995261;28;20733;-76
2021/11/10 02:52:36;;;;;;;21.40;7.88;;;;;;;1.91;100.00;102356.34;5013438;28;20114;-76
2021/11/10 02:55:04;;;;;;;15.93;7.03;;;;;;;1.91;100.00;102345.16;5012196;28;20056;-76
2021/11/10 02:57:29;;;;;;;13.75;7.70;;;;;;;1.88;100.00;102351.25;5018607;28;20030;-76
2021/11/10 02:59:55;;;;;;;13.35;7.07;;;;;;;1.86;100.00;102345.28;5017828;28;20087;-74
2021/11/10 03:02:29;;;;;;;16.50;7.40;;;;;;;1.80;100.00;102331.72;5009209;28;20080;-76
2021/11/10 03:04:59;;;;;;;16.27;7.20;;;;;;;1.74;100.00;102336.19;5024012;28;20029;-76
2021/11/10 03:07:25;;;;;;;14.27;7.10;;;;;;;1.73;100.00;102333.66;4978599;28;20057;-76
2021/11/10 03:09:52;;;;;;;12.20;6.45;;;;;;;1.72;100.00;102332.81;4999961;28;20033;-76
2021/11/10 03:12:24;;;;;;;12.00;7.00;;;;;;;1.78;100.00;102330.94;4996238;28;20076;-75
2021/11/10 03:14:50;;;;;;;16.67;7.15;;;;;;;1.73;100.00;102323.31;5016187;28;20514;-76
2021/11/10 03:17:19;;;;;;;18.63;7.88;;;;;;;1.69;100.00;102319.13;5009096;28;20159;-76
2021/11/10 03:19:45;;;;;;;16.77;7.45;;;;;;;1.62;100.00;102325.41;4996829;28;20558;-76
2021/11/10 03:22:14;;;;;;;14.52;6.85;;;;;;;1.59;100.00;102321.19;5010973;28;20037;-76
2021/11/10 03:24:44;;;;;;;19.23;6.95;;;;;;;1.60;100.00;102316.84;5009757;28;20029;-75
2021/11/10 03:27:12;;;;;;;14.93;6.75;;;;;;;1.57;100.00;102322.97;5011210;28;20037;-76
2021/11/10 03:29:39;;;;;;;13.57;7.40;;;;;;;1.57;100.00;102324.72;5009163;28;20036;-76
2021/11/10 03:32:08;;;;;;;13.85;6.70;;;;;;;1.58;100.00;102322.06;4993836;28;20044;-75
2021/11/10 03:34:34;;;;;;;13.60;6.95;;;;;;;1.51;100.00;102324.00;4992158;28;20036;-76
2021/11/10 03:37:01;;;;;;;11.88;6.18;;;;;;;1.56;100.00;102334.19;5018919;28;20041;-76
2021/11/10 03:39:27;;;;;;;9.50;6.68;;;;;;;1.58;100.00;102347.09;4994461;28;20323;-75
2021/11/10 03:41:54;;;;;;;14.32;6.55;;;;;;;1.59;100.00;102346.19;5011818;28;20029;-74
2021/11/10 03:44:19;;;;;;;15.90;7.72;;;;;;;1.60;100.00;102343.56;4992005;28;20493;-76
2021/11/10 03:46:46;;;;;;;11.93;6.50;;;;;;;1.63;100.00;102342.63;4995071;28;20038;-75
2021/11/10 03:49:14;;;;;;;12.23;7.03;;;;;;;1.62;100.00;102338.31;5007499;28;20026;-76
2021/11/10 03:51:41;;;;;;;13.77;7.00;;;;;;;1.66;100.00;102330.44;4995717;28;20038;-76
2021/11/10 03:54:07;;;;;;;17.52;7.57;;;;;;;1.65;100.00;102328.72;5006823;28;20800;-75
2021/11/10 03:56:35;;;;;;;12.90;7.00;;;;;;;1.67;100.00;102334.69;5012215;28;20033;-76
2021/11/10 03:59:02;;;;;;;14.43;6.80;;;;;;;1.70;100.00;102337.19;4979427;28;20021;-76
2021/11/10 04:01:29;;;;;;;16.30;6.85;;;;;;;1.76;100.00;102338.72;5005712;28;20042;-75
2021/11/10 04:03:57;;;;;;;15.38;7.13;;;;;;;1.82;100.00;102342.88;5018043;28;20040;-76
2021/11/10 04:06:24;;;;;;;14.27;6.88;;;;;;;1.82;100.00;102343.69;5012850;28;20124;-76
2021/11/10 04:08:51;;;;;;;13.02;7.53;;;;;;;1.86;100.00;102350.47;5020209;28;20044;-76
2021/11/10 04:11:20;;;;;;;15.15;6.85;;;;;;;1.85;100.00;102351.38;4992467;28;20055;-76
2021/11/10 04:13:47;;;;;;;11.65;6.90;;;;;;;1.86;100.00;102344.44;4988364;28;20120;-74
2021/11/10 04:16:13;;;;;;;15.23;6.88;;;;;;;1.90;100.00;102348.63;5023994;28;20112;-76
2021/11/10 04:18:40;;;;;;;13.63;7.30;;;;;;;1.90;100.00;102349.47;5020851;28;20446;-76
2021/11/10 04:21:13;;;;;;;15.80;7.05;;;;;;;1.92;100.00;102347.69;5009345;28;20048;-76
2021/11/10 04:23:40;;;;;;;14.65;7.25;;;;;;;1.93;100.00;102351.94;4989203;28;20118;-75
2021/11/10 04:26:09;;;;;;;10.27;7.15;;;;;;;1.91;100.00;102345.97;5009567;28;20029;-76
2021/11/10 04:28:36;;;;;;;12.82;6.93;;;;;;;1.93;100.00;102346.78;5017951;28;20115;-76
2021/11/10 04:31:02;;;;;;;11.52;6.93;;;;;;;1.98;100.00;102353.53;4995096;28;20033;-75
2021/11/10 04:33:30;;;;;;;13.98;7.68;;;;;;;2.03;100.00;102347.31;4984594;28;20052;-74
2021/11/10 04:35:56;;;;;;;13.88;7.03;;;;;;;2.03;100.00;102347.31;5024564;28;20037;-75
2021/11/10 04:38:23;;;;;;;18.05;7.38;;;;;;;2.06;100.00;102349.81;4990296;28;20107;-75
2021/11/10 04:40:49;;;;;;;14.35;7.50;;;;;;;2.03;100.00;102349.91;5025288;28;20026;-76
2021/11/10 04:43:17;;;;;;;14.45;7.18;;;;;;;1.99;100.00;102340.53;4998856;28;20029;-75
2021/11/10 04:45:52;;;;;;;14.63;7.65;;;;;;;1.99;100.00;102337.97;5007747;28;20037;-76
2021/11/10 04:48:18;;;;;;;11.35;6.80;;;;;;;1.93;100.00;102336.44;5024801;28;20083;-76
2021/11/10 04:50:46;;;;;;;11.02;6.95;;;;;;;1.85;100.00;102342.78;5013655;28;20033;-76
2021/11/10 04:53:12;;;;;;;12.55;6.63;;;;;;;1.83;100.00;102348.00;4992612;28;20041;-75
2021/11/10 04:55:39;;;;;;;12.63;6.40;;;;;;;1.80;100.00;102335.16;4999931;28;20029;-76
2021/11/10 04:58:05;;;;;;;11.82;6.47;;;;;;;1.79;100.00;102340.38;5010038;28;20478;-76
2021/11/10 05:00:31;;;;;;;14.60;6.82;;;;;;;1.71;100.00;102336.31;4996368;28;20048;-76
2021/11/10 05:02:57;;;;;;;14.27;7.10;;;;;;;1.65;100.00;102338.25;5008074;28;20394;-75
2021/11/10 05:05:23;;;;;;;12.65;6.78;;;;;;;1.55;100.00;102340.28;5015256;28;20045;-76
2021/11/10 05:07:50;;;;;;;19.23;7.97;;;;;;;1.48;100.00;102334.44;5012002;28;20044;-76
2021/11/10 05:10:17;;;;;;;14.65;7.15;;;;;;;1.43;100.00;102331.19;4995961;28;20124;-74
2021/11/10 05:12:45;;;;;;;12.63;6.60;;;;;;;1.43;100.00;102328.59;5004584;28;20199;-76
2021/11/10 05:15:12;;;;;;;10.40;6.85;;;;;;;1.41;100.00;102332.09;4976470;28;20148;-76
2021/11/10 05:17:37;;;;;;;15.68;7.22;;;;;;;1.33;100.00;102325.44;5010103;28;20069;-76
2021/11/10 05:20:04;;;;;;;16.23;7.35;;;;;;;1.30;100.00;102329.84;4997601;28;20061;-75
2021/11/10 05:22:30;;;;;;;13.10;7.38;;;;;;;1.27;100.00;102330.78;4985792;28;20038;-76
2021/11/10 05:24:55;;;;;;;14.27;7.90;;;;;;;1.33;100.00;102333.19;5020009;28;20029;-76
2021/11/10 05:27:21;;;;;;;19.40;7.90;;;;;;;1.38;100.00;102322.72;5009299;28;20570;-76
2021/11/10 05:29:46;;;;;;;14.43;7.45;;;;;;;1.41;100.00;102319.16;5006269;28;20021;-76
2021/11/10 05:32:12;;;;;;;14.02;6.80;;;;;;;1.43;100.00;102309.63;5003637;28;20056;-76
2021/11/10 05:34:38;;;;;;;14.38;7.97;;;;;;;1.44;100.00;102319.09;5023874;28;20091;-75
2021/11/10 05:37:04;;;;;;;15.27;7.78;;;;;;;1.44;100.00;102316.50;5009167;28;20048;-75
2021/11/10 05:39:30;;;;;;;10.32;7.00;;;;;;;1.46;100.00;102309.53;5001361;28;20691;-75
2021/11/10 05:41:55;;;;;;;18.23;7.20;;;;;;;1.48;100.00;102316.34;4991131;28;20470;-76
2021/11/10 05:44:21;;;;;;;13.13;7.22;;;;;;;1.54;100.00;102320.47;4997079;28;20402;-76
2021/11/10 05:46:46;;;;;;;14.02;7.10;;;;;;;1.61;100.00;102321.97;4992382;28;20387;-76
2021/11/10 05:49:12;;;;;;;14.13;7.65;;;;;;;1.64;100.00;102319.28;4999935;28;20036;-76
2021/11/10 05:51:37;;;;;;;18.33;7.30;;;;;;;1.63;100.00;102322.75;5012621;28;20403;-76
2021/11/10 05:54:04;;;;;;;13.10;7.20;;;;;;;1.68;100.00;102318.28;5007082;28;20038;-76
2021/11/10 05:56:33;;;;;;;12.50;7.80;;;;;;;1.80;100.00;102313.59;5022777;28;20072;-75
2021/11/10 05:59:00;;;;;;;17.25;8.90;;;;;;;1.81;100.00;102315.28;5005600;28;20030;-75
2021/11/10 06:01:26;;;;;;;14.18;7.38;;;;;;;1.63;100.00;102315.00;4991631;28;20046;-76
2021/11/10 06:03:54;;;;;;;14.85;6.88;;;;;;;1.47;100.00;102318.97;4993591;28;20079;-75
2021/11/10 06:06:20;;;;;;;14.55;6.35;;;;;;;1.35;100.00;102310.72;5023885;28;20049;-76
2021/11/10 06:08:46;;;;;;;15.32;7.30;;;;;;;1.34;100.00;102306.44;4996587;28;20712;-75
2021/11/10 06:11:12;;;;;;;10.90;7.15;;;;;;;1.36;100.00;102307.25;5002806;28;20041;-76
2021/11/10 06:13:39;;;;;;;16.55;7.95;;;;;;;1.38;100.00;102302.03;5024702;28;20033;-76
2021/11/10 06:16:06;;;;;;;12.23;7.68;;;;;;;1.49;100.00;102299.94;5020515;28;20033;-75
2021/11/10 06:18:31;;;;;;;14.30;7.40;;;;;;;1.52;100.00;102294.66;5004288;28;20045;-76
2021/11/10 06:20:59;;;;;;;17.02;7.45;;;;;;;1.53;100.00;102295.53;5010870;28;20036;-76
2021/11/10 06:23:25;;;;;;;14.38;7.22;;;;;;;1.49;100.00;102292.19;4992736;28;20057;-75
2021/11/10 06:25:50;;;;;;;16.17;7.35;;;;;;;1.53;100.00;102303.28;5027930;28;20068;-75
2021/11/10 06:28:16;;;;;;;14.73;7.50;;;;;;;1.52;100.00;102297.25;4988363;28;20042;-76
2021/11/10 06:30:42;;;;;;;16.27;8.13;;;;;;;1.55;100.00;102298.91;5015993;28;20037;-76
2021/11/10 06:33:07;;;;;;;14.30;7.28;;;;;;;1.50;100.00;102298.19;4996948;28;20086;-76
2021/11/10 06:35:33;;;;;;;16.50;8.45;;;;;;;1.53;100.00;102305.88;4994700;28;20041;-75
2021/11/10 06:38:00;;;;;;;15.63;7.82;;;;;;;1.53;100.00;102295.53;5007906;28;20026;-75
2021/11/10 06:40:26;;;;;;;13.57;7.60;;;;;;;1.56;100.00;102308.34;5007554;28;20423;-77
2021/11/10 06:42:52;;;;;;;12.82;8.00;;;;;;;1.56;100.00;102308.34;5026916;28;20036;-75
2021/11/10 06:45:18;;;;;;;12.73;7.72;;;;;;;1.58;100.00;102314.28;5013735;28;20045;-76
2021/11/10 06:47:43;;;;;;;14.35;8.23;;;;;;;1.59;100.00;102315.16;5003755;28;20041;-75
2021/11/10 06:50:10;;;;;;;15.48;8.70;;;;;;;1.68;100.00;102307.09;4999727;28;20029;-75
2021/11/10 06:52:36;;;;;;;20.48;8.88;;;;;;;1.77;100.00;102300.75;4994604;28;20029;-76
2021/11/10 06:55:03;;;;;;;23.08;9.93;;;;;;;1.90;100.00;102310.66;5017821;28;20112;-75
2021/11/10 06:57:30;;;;;;;15.98;8.15;;;;;;;1.95;100.00;102313.09;5008439;28;20034;-75
2021/11/10 06:59:57;;;;;;;12.93;8.63;;;;;;;1.98;100.00;102317.31;5027445;28;20034;-76
2021/11/10 07:02:23;;;;;;;21.27;8.88;;;;;;;2.01;100.00;102319.78;5018212;28;20044;-76
2021/11/10 07:04:48;;;;;;;15.77;8.73;;;;;;;2.06;100.00;102310.13;5015379;28;20033;-75
2021/11/10 07:07:14;;;;;;;14.13;8.77;;;;;;;2.11;100.00;102314.25;4982658;28;20032;-76
2021/11/10 07:09:39;;;;;;;22.98;8.98;;;;;;;2.01;100.00;102315.47;4999419;28;20060;-76
2021/11/10 07:12:06;;;;;;;14.00;7.57;;;;;;;1.92;100.00;102321.81;4988362;28;20490;-77
2021/11/10 07:14:31;;;;;;;18.67;8.57;;;;;;;1.90;100.00;102322.75;4995594;28;20069;-75
2021/11/10 07:16:57;;;;;;;16.98;7.40;;;;;;;1.86;100.00;102321.16;5030596;28;20104;-76
2021/11/10 07:19:22;;;;;;;17.42;7.78;;;;;;;1.99;100.00;102326.78;5012945;28;20038;-76
2021/11/10 07:21:48;;;;;;;19.05;8.65;;;;;;;1.97;100.00;102323.38;5009300;28;20049;-76
2021/11/10 07:24:14;;;;;;;14.60;8.68;;;;;;;1.96;100.00;102325.16;5008880;28;20394;-75
2021/11/10 07:26:40;;;;;;;11.38;7.90;;;;;;;1.89;100.00;102334.84;5028135;28;20145;-77
2021/11/10 07:29:06;;;;;;;13.93;8.15;;;;;;;1.93;100.00;102336.44;5013171;28;20036;-76
2021/11/10 07:31:33;;;;;;;11.50;7.25;;;;;;;1.96;100.00;102327.72;5011207;28;20092;-77
2021/11/10 07:34:00;;;;;;;13.98;8.13;;;;;;;2.00;100.00;102323.28;5026010;28;20549;-77
2021/11/10 07:36:27;;;;;;;19.75;10.00;;;;;;;2.07;100.00;102310.09;5011027;28;20048;-77
2021/11/10 07:38:55;;;;;;;18.52;9.95;;;;;;;2.20;100.00;102305.31;5015217;28;20032;-76
2021/11/10 07:41:24;;;;;;;17.40;10.02;;;;;;;2.30;100.00;102306.69;5017059;28;20030;-75
2021/11/10 07:43:52;;;;;;;15.15;9.07;;;;;;;2.32;100.00;102304.88;5032063;28;20119;-74
2021/11/10 07:46:19;;;;;;;17.92;9.65;;;;;;;2.47;100.00;102311.25;5014432;28;20090;-76
2021/11/10 07:48:47;;;;;;;14.63;8.95;;;;;;;2.64;100.00;102310.66;5020261;28;20128;-76
2021/11/10 07:51:14;;;;;;;17.52;9.25;;;;;;;2.84;100.00;102311.63;4996675;28;20064;-76
2021/11/10 07:53:40;;;;;;;15.88;9.40;;;;;;;2.89;100.00;102309.72;4990886;28;20487;-74
2021/11/10 07:56:06;;;;;;;13.73;8.65;;;;;;;2.95;100.00;102303.47;5020273;28;20034;-75
2021/11/10 07:58:33;;;;;;;18.73;10.50;;;;;;;3.06;100.00;102307.31;5017699;28;20084;-77
2021/11/10 08:00:59;;;;;;;16.67;9.00;;;;;;;3.18;100.00;102310.34;5022523;28;20091;-76
2021/11/10 08:03:24;;;;;;;17.80;9.40;;;;;;;3.26;100.00;102298.78;4991817;28;20042;-76
2021/11/10 08:05:50;;;;;;;14.82;9.10;;;;;;;3.34;100.00;102288.09;4995457;28;20037;-77
2021/11/10 08:08:16;;;;;;;16.48;9.18;;;;;;;3.38;100.00;102278.44;5011417;28;20494;-75
2021/11/10 08:10:43;;;;;;;16.52;8.57;;;;;;;3.49;100.00;102281.44;5005382;28;20042;-76
2021/11/10 08:13:08;;;;;;;14.27;8.10;;;;;;;3.50;100.00;102290.88;4994079;28;20033;-76
2021/11/10 08:15:36;;;;;;;13.02;8.10;;;;;;;3.55;100.00;102291.56;4978693;28;20104;-76
2021/11/10 08:18:04;;;;;;;11.77;7.63;;;;;;;3.65;100.00;102292.00;4996860;28;20044;-77
2021/11/10 08:20:30;;;;;;;16.40;8.77;;;;;;;3.79;100.00;102299.25;5007532;28;20053;-78
2021/11/10 08:22:56;;;;;;;17.38;8.95;;;;;;;3.96;100.00;102309.75;5021911;28;20037;-75
2021/11/10 08:25:22;;;;;;;13.95;7.95;;;;;;;4.06;100.00;102305.84;4997694;28;20045;-76
2021/11/10 08:27:48;;;;;;;16.15;8.35;;;;;;;4.19;100.00;102300.97;5025159;28;20110;-75
2021/11/10 08:30:17;;;;;;;16.85;8.38;;;;;;;4.34;100.00;102301.22;5024470;28;20033;-76
2021/11/10 08:32:44;;;;;;;21.48;8.75;;;;;;;4.40;100.00;102301.78;4987113;28;20038;-76
2021/11/10 08:35:11;;;;;;;14.90;8.23;;;;;;;4.53;100.00;102309.03;5007248;28;20037;-77
2021/11/10 08:37:38;;;;;;;16.70;7.85;;;;;;;4.52;100.00;102309.94;4991609;28;20056;-76
2021/11/10 08:40:05;;;;;;;17.00;8.45;;;;;;;4.67;100.00;102306.63;5013560;28;20132;-77
2021/11/10 08:42:33;;;;;;;18.33;8.93;;;;;;;4.74;100.00;102309.81;4996672;28;20132;-77
2021/11/10 08:45:09;;;;;;;18.52;8.80;;;;;;;4.74;100.00;102307.22;4998462;28;20067;-77
2021/11/10 08:47:36;;;;;;;18.65;9.02;;;;;;;4.92;100.00;102310.72;4991575;28;20037;-78
2021/11/10 08:50:05;;;;;;;16.05;8.55;;;;;;;5.03;100.00;102314.50;5007498;28;20069;-76
2021/11/10 08:52:31;;;;;;;15.27;8.15;;;;;;;5.04;100.00;102310.16;5007967;28;20041;-75
2021/11/10 08:54:57;;;;;;;15.45;8.07;;;;;;;5.14;100.00;102320.94;5011591;28;20095;-76
2021/11/10 08:57:23;;;;;;;15.05;8.13;;;;;;;5.30;100.00;102331.50;5012078;28;20046;-76
2021/11/10 08:59:49;;;;;;;18.10;7.90;;;;;;;5.40;100.00;102328.34;4992470;28;20052;-75
2021/11/10 09:02:14;;;;;;;19.33;8.18;;;;;;;5.34;100.00;102336.47;5011767;28;20038;-76
2021/11/10 09:04:40;;;;;;;15.38;7.85;;;;;;;5.38;100.00;102337.16;5006509;28;20083;-76
2021/11/10 09:07:07;;;;;;;16.80;8.63;;;;;;;5.47;100.00;102324.53;5001529;28;20081;-77
2021/11/10 09:09:33;;;;;;;20.08;8.05;;;;;;;5.47;100.00;102316.72;5003580;28;20120;-76
2021/11/10 09:11:58;;;;;;;15.82;8.13;;;;;;;5.56;100.00;102314.63;5006633;28;20033;-76
2021/11/10 09:14:24;;;;;;;15.18;7.72;;;;;;;5.57;100.00;102311.91;5021061;28;20041;-75
2021/11/10 09:16:50;;;;;;;13.63;7.82;;;;;;;5.73;100.00;102304.19;5020347;28;20099;-76
2021/11/10 09:19:16;;;;;;;16.05;8.30;;;;;;;5.80;100.00;102309.94;5020803;28;20029;-76
2021/11/10 09:21:42;;;;;;;19.63;8.02;;;;;;;5.88;100.00;102317.34;4998229;28;20380;-76
2021/11/10 09:24:07;;;;;;;16.92;7.38;;;;;;;5.98;100.00;102321.22;4977849;28;20110;-75
2021/11/10 09:26:35;;;;;;;17.65;8.30;;;;;;;6.09;100.00;102318.91;4988283;28;20450;-77
2021/11/10 09:29:02;;;;;;;17.33;7.75;;;;;;;6.04;100.00;102321.75;5043280;28;20419;-76
2021/11/10 09:31:28;;;;;;;15.95;7.60;;;;;;;6.21;100.00;102327.84;5016390;28;20499;-76
2021/11/10 09:34:00;;;;;;;15.35;7.82;;;;;;;6.38;100.00;102326.97;4988323;28;20495;-77
2021/11/10 09:36:26;;;;;;;13.40;7.88;;;;;;;6.49;100.00;102319.44;5010158;28;20041;-77
2021/11/10 09:38:51;;;;;;;18.50;9.23;;;;;;;6.60;100.00;102330.13;5026985;28;20030;-75
2021/11/10 09:41:17;;;;;;;14.77;8.65;;;;;;;6.73;100.00;102327.72;4999712;28;20033;-73
2021/11/10 09:43:43;;;;;;;21.50;8.73;;;;;;;6.92;100.00;102324.13;5023681;28;20048;-75
2021/11/10 09:46:12;;;;;;;18.52;8.57;;;;;;;7.10;100.00;102320.50;5024530;28;20030;-76
2021/11/10 09:48:38;;;;;;;15.38;8.65;;;;;;;7.27;100.00;102318.69;5012774;28;20041;-76
2021/11/10 09:51:05;;;;;;;18.45;8.73;;;;;;;7.34;100.00;102315.66;5026136;28;20694;-75
2021/11/10 09:53:32;;;;;;;17.17;8.10;;;;;;;7.40;100.00;102324.91;5011675;28;20056;-76
2021/11/10 09:55:59;;;;;;;18.02;8.30;;;;;;;7.57;100.00;102329.16;5019798;28;20044;-75
2021/11/10 09:58:25;;;;;;;13.57;8.15;;;;;;;7.63;100.00;102330.56;4978675;28;20042;-77
2021/11/10 10:00:57;;;;;;;17.65;8.07;;;;;;;7.69;100.00;102325.03;5010446;28;20037;-77
2021/11/10 10:03:23;;;;;;;15.37;7.90;;;;;;;7.81;100.00;102329.53;5005564;28;20037;-75
2021/11/10 10:05:51;;;;;;;18.92;8.27;;;;;;;7.92;100.00;102327.13;5010385;28;20053;-76
2021/11/10 10:08:19;;;;;;;12.73;7.72;;;;;;;8.01;100.00;102325.75;5026438;28;20670;-76
2021/11/10 10:10:46;;;;;;;14.18;7.72;;;;;;;8.11;100.00;102324.25;5008509;28;20153;-77
2021/11/10 10:13:12;;;;;;;11.07;6.75;;;;;;;8.23;100.00;102329.69;4995411;28;20106;-77
2021/11/10 10:15:39;;;;;;;13.60;7.45;;;;;;;8.31;100.00;102335.31;4989271;28;20161;-76
2021/11/10 10:18:18;;;;;;;13.48;6.60;;;;;;;8.47;100.00;102335.22;4998580;28;20037;-74
2021/11/10 10:20:46;;;;;;;17.65;7.25;;;;;;;8.57;100.00;102331.97;5002392;28;20468;-77
2021/11/10 10:23:15;;;;;;;14.18;6.30;;;;;;;8.77;100.00;102332.50;5005348;28;20511;-76
2021/11/10 10:25:57;;;;;;;12.35;6.68;;;;;;;8.95;100.00;102323.50;4987571;28;20037;-78
2021/11/10 10:28:29;;;;;;;14.43;6.88;;;;;;;9.19;99.43;102332.47;5007568;28;20044;-76
2021/11/10 10:30:59;;;;;;;;;;;;;;;9.24;99.46;102328.63;5015530;28;20044;-76
2021/11/10 10:33:28;;;;;;;9.77;5.70;;;;;;;9.24;99.67;102325.19;5010591;28;19917;-77
2021/11/10 10:35:56;;;;;;;9.38;5.78;;;;;;;9.28;100.00;102331.91;4999252;28;20040;-76
2021/11/10 10:38:25;;;;;;;11.95;5.70;;;;;;;9.28;98.54;102324.88;5007707;28;21125;-76
2021/11/10 10:40:54;;;;;;;9.00;4.93;;;;;;;9.37;98.89;102312.13;5009136;28;20033;-77
2021/11/10 10:43:21;;;;;;;12.93;5.72;;;;;;;9.43;99.62;102314.34;4984571;28;20609;-77
2021/11/10 10:45:49;;;;;;;12.52;5.70;;;;;;;9.64;97.84;102320.78;4984986;28;20030;-76
2021/11/10 10:48:18;;;;;;;15.73;6.07;;;;;;;9.80;96.74;102319.78;4994454;28;20033;-75
2021/11/10 10:50:55;;;;;;;10.00;5.88;;;;;;;9.81;95.34;102314.41;5010164;28;20439;-77
2021/11/10 10:53:41;;;;;;;8.68;5.28;;;;;;;9.86;96.02;102330.69;5010679;28;20033;-76
2021/11/10 10:56:29;;;;;;;10.38;5.50;;;;;;;9.98;95.14;102322.94;4995132;28;20080;-75
2021/11/10 10:59:10;;;;;;;13.95;5.80;;;;;;;10.14;94.27;102316.53;5027703;28;20052;-78
2021/11/10 11:01:38;;;;;;;11.98;5.40;;;;;;;10.19;91.79;102312.75;5022779;28;20620;-75
2021/11/10 11:04:19;;;;;;;16.58;5.13;;;;;;;9.99;92.62;102312.34;4996271;28;20116;-77
2021/11/10 11:07:06;;;;;;;11.85;5.28;;;;;;;9.85;93.81;102308.06;5016162;28;20033;-76
2021/11/10 11:09:33;;;;;;;10.05;5.70;;;;;;;9.73;93.42;102314.94;5007605;28;20049;-76
2021/11/10 11:12:02;;;;;;;12.02;5.60;;;;;;;9.79;94.58;102312.84;5013396;28;20049;-76
2021/11/10 11:17:20;;;;;;;11.68;6.05;;;;;;;9.92;93.92;102305.84;5009411;28;20030;-76
2021/11/10 11:20:03;;;;;;;14.30;6.05;;;;;;;9.97;95.31;102300.31;4988365;28;20050;-76